Nikkoumaru No.5 — JD2407 — position and weather

sailwx.info

Track history (hours):
 
Tides and Currents Weather Stations Pressure Air Temp Water Temp Dewpoint Dewpoint Depression Visibility Wind Speed Wind Dir Waves Ship Positions

Nikkoumaru No.5

Last reported at 2017-Nov-10 15:45 UTC. Time now 2017-Nov-25 02:04 UTC.
Position N 35°02' E 139°32'.
Warning: this ship's position is 14 days out of date.

Length 61 m; draft 4.5 m.

Type: Tanker. MMSI: 431000214.

Date/timePositionNaut miles runAvg speedWind from/ knotsBaromVisibWave heightAir tempDewpointWater temp
2017-Nov-10 15:45N 35°02' E 139°32'3 9.2
2017-Nov-10 15:28N 35°03' E 139°35'4 9.2
2017-Nov-10 15:00N 35°05' E 139°40'5 9.1
2017-Nov-10 14:30N 35°09' E 139°43'510.8
2017-Nov-10 14:00N 35°14' E 139°46'611.6
2017-Nov-10 13:30N 35°19' E 139°43'510.7
2017-Nov-10 13:00N 35°24' E 139°43'5 9.8
2017-Nov-10 12:30N 35°29' E 139°42'4 7.2
2017-Nov-10 11:59N 35°31' E 139°46'0 0.0
2017-Nov-10 11:29N 35°31' E 139°46'0 0.0
2017-Nov-10 10:59N 35°31' E 139°46'0 0.0
2017-Nov-10 10:30N 35°31' E 139°46'0 0.0
2017-Nov-10 10:00N 35°31' E 139°46'0 0.0
2017-Nov-10 09:30N 35°31' E 139°46'0 0.0
2017-Nov-10 09:00N 35°31' E 139°46'0 0.0
2017-Nov-10 08:30N 35°31' E 139°46'0 0.0
2017-Nov-10 08:00N 35°31' E 139°46'0 0.0
2017-Nov-10 07:30N 35°31' E 139°46'0 0.0
2017-Nov-10 07:00N 35°31' E 139°46'0 0.0
2017-Nov-10 06:30N 35°31' E 139°46'0 0.0
2017-Nov-10 06:00N 35°31' E 139°46'0 0.0
2017-Nov-10 05:30N 35°31' E 139°46'0 0.0
2017-Nov-10 05:00N 35°31' E 139°46'0 0.0
2017-Nov-10 04:30N 35°31' E 139°46'3 5.2
2017-Nov-10 04:00N 35°29' E 139°49'0 0.0
2017-Nov-10 03:30N 35°29' E 139°49'0 0.0
2017-Nov-10 02:59N 35°29' E 139°49'0 0.0
2017-Nov-10 02:28N 35°29' E 139°49'0 0.0
2017-Nov-10 01:59N 35°29' E 139°49'2 3.8
2017-Nov-10 01:30N 35°27' E 139°47'611.8
2017-Nov-10 01:00N 35°22' E 139°45'510.6
2017-Nov-10 00:30N 35°17' E 139°46'611.2
2017-Nov-10 00:00N 35°11' E 139°46'611.6
2017-Nov-09 23:30N 35°06' E 139°43'611.8
2017-Nov-09 23:00N 35°01' E 139°39'11 0.3
2017-Nov-08 11:56N 35°11' E 139°45'511.2
2017-Nov-08 11:30N 35°16' E 139°46'611.7
2017-Nov-08 11:00N 35°21' E 139°43'510.1
2017-Nov-08 10:30N 35°26' E 139°45'610.8
2017-Nov-08 09:57N 35°29' E 139°51'2 0.3
2017-Nov-08 04:28N 35°31' E 139°50'3 6.9
2017-Nov-08 04:00N 35°31' E 139°46'0 0.0
2017-Nov-08 03:30N 35°31' E 139°46'0 0.0
2017-Nov-08 03:00N 35°31' E 139°46'0 0.0
2017-Nov-08 02:30N 35°31' E 139°46'0 0.0
2017-Nov-08 02:00N 35°31' E 139°46'0 0.0
2017-Nov-08 01:30N 35°31' E 139°46'0 0.0
2017-Nov-08 01:00N 35°31' E 139°46'0 0.0
2017-Nov-08 00:30N 35°31' E 139°46'0 0.0
2017-Nov-08 00:00N 35°31' E 139°46'0 0.0
2017-Nov-07 23:30N 35°31' E 139°46'0 0.0
2017-Nov-07 23:00N 35°31' E 139°46'0 0.0
2017-Nov-07 22:30N 35°31' E 139°46'0 0.0
2017-Nov-07 22:00N 35°31' E 139°46'0 0.4
2017-Nov-07 21:30N 35°31' E 139°46'3 4.1
2017-Nov-07 20:45N 35°29' E 139°49'0 0.0
2017-Nov-07 20:30N 35°29' E 139°49'0 0.0
2017-Nov-07 19:20N 35°29' E 139°49'0 0.0
2017-Nov-07 19:00N 35°29' E 139°49'0 0.0
2017-Nov-07 18:30N 35°29' E 139°49'0 0.0
2017-Nov-07 17:58N 35°29' E 139°49'0 0.0
2017-Nov-07 17:30N 35°29' E 139°49'0 0.0
2017-Nov-07 17:00N 35°29' E 139°49'0 0.0
2017-Nov-07 16:30N 35°29' E 139°49'0 0.0
2017-Nov-07 13:15N 35°29' E 139°49'0 0.0
2017-Nov-07 13:00N 35°29' E 139°49'0 0.0
2017-Nov-07 12:28N 35°29' E 139°49'0 0.0
2017-Nov-07 11:40N 35°29' E 139°49'0 0.0
2017-Nov-07 11:29N 35°29' E 139°49'0 0.0
2017-Nov-07 10:54N 35°29' E 139°49'0 0.0
2017-Nov-07 10:28N 35°29' E 139°49'0 0.0
2017-Nov-07 09:59N 35°29' E 139°49'0 0.0
2017-Nov-07 09:30N 35°29' E 139°49'0 0.0
2017-Nov-07 09:00N 35°29' E 139°49'0 0.0
2017-Nov-07 08:28N 35°29' E 139°49'0 0.0
2017-Nov-07 07:59N 35°29' E 139°49'0 0.0
2017-Nov-07 07:30N 35°29' E 139°49'0 0.0
2017-Nov-07 06:59N 35°29' E 139°49'0 0.0
2017-Nov-07 06:30N 35°29' E 139°49'2 4.0
2017-Nov-07 05:59N 35°30' E 139°47'1 2.7
2017-Nov-07 05:29N 35°31' E 139°46'0 0.0
2017-Nov-07 04:51N 35°31' E 139°46'0 0.1
2017-Nov-07 04:30N 35°31' E 139°46'4 9.0
2017-Nov-07 04:00N 35°31' E 139°51'254 6.5
2017-Nov-05 12:44N 34°08' E 134°59'1810.8
2017-Nov-05 11:06N 34°26' E 135°00'110.8
2017-Nov-05 11:00N 34°27' E 135°00'510.2
2017-Nov-05 10:30N 34°32' E 135°02'5 7.7
2017-Nov-05 09:48N 34°37' E 135°00'310.7
2017-Nov-05 09:29N 34°36' E 134°56'  
2017-Nov-01 00:29N 34°40' E 135°25'0 0.0
2017-Oct-31 23:41N 34°40' E 135°25'0 0.0
2017-Oct-31 23:31N 34°40' E 135°25'1 2.4
2017-Oct-31 23:00N 34°39' E 135°24'3 6.7
2017-Oct-31 22:30N 34°39' E 135°20'0 0.8
2017-Oct-31 22:01N 34°38' E 135°20'0 0.6
2017-Oct-31 21:30N 34°39' E 135°20'1 2.9
2017-Oct-31 21:00N 34°37' E 135°19'611.1
2017-Oct-31 20:29N 34°33' E 135°14'511.1
2017-Oct-31 20:00N 34°29' E 135°10'1311.6
2017-Oct-31 18:51N 34°19' E 135°00'411.1
2017-Oct-31 18:29N 34°15' E 134°59'510.4
2017-Oct-31 18:00N 34°10' E 134°60'  
Track history (hours):
 
Tides and Currents Weather Stations Pressure Air Temp Water Temp Dewpoint Dewpoint Depression Visibility Wind Speed Wind Dir Waves Ship Positions

Nikkoumaru No.5

Last reported at 2017-Nov-10 15:45 UTC. Time now 2017-Nov-25 02:04 UTC.
Position N 35°02' E 139°32'.
Warning: this ship's position is 14 days out of date.

Length 61 m; draft 4.5 m.

Type: Tanker. MMSI: 431000214.

Date/timePositionNaut miles runAvg speedWind from/ knotsBaromVisibWave heightAir tempDewpointWater temp
2017-Nov-10 15:45N 35°02' E 139°32'3 9.2
2017-Nov-10 15:28N 35°03' E 139°35'4 9.2
2017-Nov-10 15:00N 35°05' E 139°40'5 9.1
2017-Nov-10 14:30N 35°09' E 139°43'510.8
2017-Nov-10 14:00N 35°14' E 139°46'611.6
2017-Nov-10 13:30N 35°19' E 139°43'510.7
2017-Nov-10 13:00N 35°24' E 139°43'5 9.8
2017-Nov-10 12:30N 35°29' E 139°42'4 7.2
2017-Nov-10 11:59N 35°31' E 139°46'0 0.0
2017-Nov-10 11:29N 35°31' E 139°46'0 0.0
2017-Nov-10 10:59N 35°31' E 139°46'0 0.0
2017-Nov-10 10:30N 35°31' E 139°46'0 0.0
2017-Nov-10 10:00N 35°31' E 139°46'0 0.0
2017-Nov-10 09:30N 35°31' E 139°46'0 0.0
2017-Nov-10 09:00N 35°31' E 139°46'0 0.0
2017-Nov-10 08:30N 35°31' E 139°46'0 0.0
2017-Nov-10 08:00N 35°31' E 139°46'0 0.0
2017-Nov-10 07:30N 35°31' E 139°46'0 0.0
2017-Nov-10 07:00N 35°31' E 139°46'0 0.0
2017-Nov-10 06:30N 35°31' E 139°46'0 0.0
2017-Nov-10 06:00N 35°31' E 139°46'0 0.0
2017-Nov-10 05:30N 35°31' E 139°46'0 0.0
2017-Nov-10 05:00N 35°31' E 139°46'0 0.0
2017-Nov-10 04:30N 35°31' E 139°46'3 5.2
2017-Nov-10 04:00N 35°29' E 139°49'0 0.0
2017-Nov-10 03:30N 35°29' E 139°49'0 0.0
2017-Nov-10 02:59N 35°29' E 139°49'0 0.0
2017-Nov-10 02:28N 35°29' E 139°49'0 0.0
2017-Nov-10 01:59N 35°29' E 139°49'2 3.8
2017-Nov-10 01:30N 35°27' E 139°47'611.8
2017-Nov-10 01:00N 35°22' E 139°45'510.6
2017-Nov-10 00:30N 35°17' E 139°46'611.2
2017-Nov-10 00:00N 35°11' E 139°46'611.6
2017-Nov-09 23:30N 35°06' E 139°43'611.8
2017-Nov-09 23:00N 35°01' E 139°39'11 0.3
2017-Nov-08 11:56N 35°11' E 139°45'511.2
2017-Nov-08 11:30N 35°16' E 139°46'611.7
2017-Nov-08 11:00N 35°21' E 139°43'510.1
2017-Nov-08 10:30N 35°26' E 139°45'610.8
2017-Nov-08 09:57N 35°29' E 139°51'2 0.3
2017-Nov-08 04:28N 35°31' E 139°50'3 6.9
2017-Nov-08 04:00N 35°31' E 139°46'0 0.0
2017-Nov-08 03:30N 35°31' E 139°46'0 0.0
2017-Nov-08 03:00N 35°31' E 139°46'0 0.0
2017-Nov-08 02:30N 35°31' E 139°46'0 0.0
2017-Nov-08 02:00N 35°31' E 139°46'0 0.0
2017-Nov-08 01:30N 35°31' E 139°46'0 0.0
2017-Nov-08 01:00N 35°31' E 139°46'0 0.0
2017-Nov-08 00:30N 35°31' E 139°46'0 0.0
2017-Nov-08 00:00N 35°31' E 139°46'0 0.0
2017-Nov-07 23:30N 35°31' E 139°46'0 0.0
2017-Nov-07 23:00N 35°31' E 139°46'0 0.0
2017-Nov-07 22:30N 35°31' E 139°46'0 0.0
2017-Nov-07 22:00N 35°31' E 139°46'0 0.4
2017-Nov-07 21:30N 35°31' E 139°46'3 4.1
2017-Nov-07 20:45N 35°29' E 139°49'0 0.0
2017-Nov-07 20:30N 35°29' E 139°49'0 0.0
2017-Nov-07 19:20N 35°29' E 139°49'0 0.0
2017-Nov-07 19:00N 35°29' E 139°49'0 0.0
2017-Nov-07 18:30N 35°29' E 139°49'0 0.0
2017-Nov-07 17:58N 35°29' E 139°49'0 0.0
2017-Nov-07 17:30N 35°29' E 139°49'0 0.0
2017-Nov-07 17:00N 35°29' E 139°49'0 0.0
2017-Nov-07 16:30N 35°29' E 139°49'0 0.0
2017-Nov-07 13:15N 35°29' E 139°49'0 0.0
2017-Nov-07 13:00N 35°29' E 139°49'0 0.0
2017-Nov-07 12:28N 35°29' E 139°49'0 0.0
2017-Nov-07 11:40N 35°29' E 139°49'0 0.0
2017-Nov-07 11:29N 35°29' E 139°49'0 0.0
2017-Nov-07 10:54N 35°29' E 139°49'0 0.0
2017-Nov-07 10:28N 35°29' E 139°49'0 0.0
2017-Nov-07 09:59N 35°29' E 139°49'0 0.0
2017-Nov-07 09:30N 35°29' E 139°49'0 0.0
2017-Nov-07 09:00N 35°29' E 139°49'0 0.0
2017-Nov-07 08:28N 35°29' E 139°49'0 0.0
2017-Nov-07 07:59N 35°29' E 139°49'0 0.0
2017-Nov-07 07:30N 35°29' E 139°49'0 0.0
2017-Nov-07 06:59N 35°29' E 139°49'0 0.0
2017-Nov-07 06:30N 35°29' E 139°49'2 4.0
2017-Nov-07 05:59N 35°30' E 139°47'1 2.7
2017-Nov-07 05:29N 35°31' E 139°46'0 0.0
2017-Nov-07 04:51N 35°31' E 139°46'0 0.1
2017-Nov-07 04:30N 35°31' E 139°46'4 9.0
2017-Nov-07 04:00N 35°31' E 139°51'254 6.5
2017-Nov-05 12:44N 34°08' E 134°59'1810.8
2017-Nov-05 11:06N 34°26' E 135°00'110.8
2017-Nov-05 11:00N 34°27' E 135°00'510.2
2017-Nov-05 10:30N 34°32' E 135°02'5 7.7
2017-Nov-05 09:48N 34°37' E 135°00'310.7
2017-Nov-05 09:29N 34°36' E 134°56'  
2017-Nov-01 00:29N 34°40' E 135°25'0 0.0
2017-Oct-31 23:41N 34°40' E 135°25'0 0.0
2017-Oct-31 23:31N 34°40' E 135°25'1 2.4
2017-Oct-31 23:00N 34°39' E 135°24'3 6.7
2017-Oct-31 22:30N 34°39' E 135°20'0 0.8
2017-Oct-31 22:01N 34°38' E 135°20'0 0.6
2017-Oct-31 21:30N 34°39' E 135°20'1 2.9
2017-Oct-31 21:00N 34°37' E 135°19'611.1
2017-Oct-31 20:29N 34°33' E 135°14'511.1
2017-Oct-31 20:00N 34°29' E 135°10'1311.6
2017-Oct-31 18:51N 34°19' E 135°00'411.1
2017-Oct-31 18:29N 34°15' E 134°59'510.4
2017-Oct-31 18:00N 34°10' E 134°60'  

Dump ship's entire track history